createdAt,value
2018-03-29T00:01:29.707Z,8.80
2018-03-29T00:03:56.860Z,8.70
2018-03-29T00:06:23.997Z,8.80
2018-03-29T00:08:50.383Z,8.70
2018-03-29T00:11:16.757Z,8.80
2018-03-29T00:13:43.882Z,8.50
2018-03-29T00:16:10.284Z,8.50
2018-03-29T00:18:36.659Z,8.40
2018-03-29T00:21:03.049Z,8.40
2018-03-29T00:23:30.162Z,8.00
2018-03-29T00:25:56.559Z,8.00
2018-03-29T00:28:22.946Z,8.10
2018-03-29T00:30:50.067Z,8.10
2018-03-29T00:33:16.489Z,8.10
2018-03-29T00:35:42.876Z,8.10
2018-03-29T00:38:09.276Z,8.20
2018-03-29T00:40:36.409Z,8.40
2018-03-29T00:43:03.555Z,8.40
2018-03-29T00:45:29.942Z,8.40
2018-03-29T00:47:56.372Z,8.40
2018-03-29T00:50:22.771Z,8.40
2018-03-29T00:52:49.165Z,8.50
2018-03-29T00:55:15.537Z,8.20
2018-03-29T00:57:42.674Z,7.70
2018-03-29T01:00:10.563Z,7.70
2018-03-29T01:02:36.947Z,7.70
2018-03-29T01:05:04.415Z,7.90
2018-03-29T01:07:31.057Z,8.00
2018-03-29T01:09:57.452Z,8.10
2018-03-29T01:12:23.846Z,8.10
2018-03-29T01:14:50.975Z,8.00
2018-03-29T01:17:17.348Z,8.00
2018-03-29T01:19:43.758Z,7.80
2018-03-29T01:22:10.895Z,7.80
2018-03-29T01:24:37.324Z,7.80
2018-03-29T01:27:05.187Z,8.20
2018-03-29T01:29:31.570Z,8.20
2018-03-29T01:31:57.972Z,8.20
2018-03-29T01:34:24.351Z,8.30
2018-03-29T01:36:50.735Z,8.40
2018-03-29T01:39:17.103Z,8.50
2018-03-29T01:41:43.498Z,8.50
2018-03-29T01:44:09.872Z,8.60
2018-03-29T01:46:36.260Z,8.60
2018-03-29T01:49:03.458Z,8.90
2018-03-29T01:51:29.834Z,8.90
2018-03-29T01:53:57.697Z,8.30
2018-03-29T01:56:25.551Z,8.20
2018-03-29T01:58:51.936Z,8.20
2018-03-29T02:01:18.332Z,8.50
2018-03-29T02:03:44.773Z,8.60
2018-03-29T02:06:11.997Z,8.90
2018-03-29T02:08:38.372Z,8.90
2018-03-29T02:11:05.519Z,9.10
2018-03-29T02:13:32.611Z,9.20
2018-03-29T02:15:58.982Z,9.20
2018-03-29T02:18:25.439Z,9.10
2018-03-29T02:20:51.831Z,9.10
2018-03-29T02:23:18.212Z,9.10
2018-03-29T02:25:44.611Z,8.80
2018-03-29T02:28:10.986Z,8.60
2018-03-29T02:30:37.363Z,8.60
2018-03-29T02:33:04.483Z,8.60
2018-03-29T02:35:30.871Z,8.60
2018-03-29T02:37:57.985Z,8.20
2018-03-29T02:40:24.388Z,8.20
2018-03-29T02:42:50.828Z,8.40
2018-03-29T02:45:17.237Z,8.20
2018-03-29T02:47:43.600Z,8.10
2018-03-29T02:50:09.967Z,8.30
2018-03-29T02:52:37.104Z,8.00
2018-03-29T02:55:03.507Z,8.00
2018-03-29T02:57:29.936Z,7.90
2018-03-29T02:59:57.064Z,8.10
2018-03-29T03:02:23.440Z,8.10
2018-03-29T03:04:49.826Z,7.90
2018-03-29T03:07:16.192Z,7.90
2018-03-29T03:09:42.568Z,8.10
2018-03-29T03:12:09.678Z,8.10
2018-03-29T03:14:36.040Z,8.10
2018-03-29T03:17:02.464Z,8.00
2018-03-29T03:19:28.842Z,7.70
2018-03-29T03:21:55.220Z,7.70
2018-03-29T03:24:21.604Z,7.70
2018-03-29T03:26:47.983Z,7.70
2018-03-29T03:29:14.377Z,7.60
2018-03-29T03:31:40.776Z,7.70
2018-03-29T03:34:07.188Z,7.90
2018-03-29T03:36:33.585Z,8.00
2018-03-29T03:38:59.964Z,8.10
2018-03-29T03:41:27.163Z,8.10
2018-03-29T03:43:53.608Z,8.10
2018-03-29T03:46:20.036Z,8.00
2018-03-29T03:48:46.440Z,8.10
2018-03-29T03:51:12.831Z,8.20
2018-03-29T03:53:39.205Z,8.20
2018-03-29T03:56:05.574Z,8.20
2018-03-29T03:58:31.956Z,8.40
2018-03-29T04:00:59.114Z,8.50
2018-03-29T04:03:25.493Z,8.50
2018-03-29T04:05:51.856Z,8.70
2018-03-29T04:08:18.234Z,8.70
2018-03-29T04:10:44.917Z,8.60
2018-03-29T04:13:11.311Z,8.60
2018-03-29T04:15:37.716Z,8.60
2018-03-29T04:18:04.117Z,8.50
2018-03-29T04:20:30.524Z,8.50
2018-03-29T04:22:56.910Z,8.60
2018-03-29T04:25:23.288Z,8.70
2018-03-29T04:27:49.711Z,8.80
2018-03-29T04:30:16.101Z,8.80
2018-03-29T04:32:43.204Z,8.70
2018-03-29T04:35:09.589Z,8.70
2018-03-29T04:37:35.989Z,8.80
2018-03-29T04:40:02.420Z,8.80
2018-03-29T04:42:28.799Z,8.90
2018-03-29T04:44:55.175Z,9.00
2018-03-29T04:47:21.556Z,9.10
2018-03-29T04:49:47.954Z,9.10
2018-03-29T04:52:15.098Z,9.30
2018-03-29T04:54:41.493Z,9.20
2018-03-29T04:57:07.891Z,9.30
2018-03-29T04:59:34.257Z,9.20
2018-03-29T05:02:00.650Z,9.20
2018-03-29T05:04:27.077Z,9.20
2018-03-29T05:06:53.491Z,9.20
2018-03-29T05:09:20.620Z,9.10
2018-03-29T05:11:47.076Z,9.10
2018-03-29T05:14:14.286Z,8.90
2018-03-29T05:16:40.689Z,8.90
2018-03-29T05:19:07.110Z,8.80
2018-03-29T05:21:34.302Z,8.70
2018-03-29T05:24:00.707Z,8.70
2018-03-29T05:26:27.134Z,8.90
2018-03-29T05:28:53.586Z,8.80
2018-03-29T05:31:20.020Z,8.90
2018-03-29T05:33:46.444Z,8.90
2018-03-29T05:36:12.885Z,8.90
2018-03-29T05:38:39.285Z,9.00
2018-03-29T05:41:06.410Z,9.00
2018-03-29T05:43:32.827Z,9.00
2018-03-29T05:45:59.259Z,9.00
2018-03-29T05:48:25.672Z,9.00
2018-03-29T05:50:52.063Z,8.90
2018-03-29T05:53:19.228Z,9.10
2018-03-29T05:55:45.652Z,9.10
2018-03-29T05:58:12.796Z,9.30
2018-03-29T06:00:39.933Z,9.50
2018-03-29T06:03:07.145Z,9.60
2018-03-29T06:05:34.243Z,9.70
2018-03-29T06:08:01.376Z,9.50
2018-03-29T06:10:27.767Z,9.50
2018-03-29T06:12:54.950Z,9.60
2018-03-29T06:15:22.207Z,9.70
2018-03-29T06:18:03.505Z,9.70
2018-03-29T06:20:30.672Z,9.60
2018-03-29T06:22:57.122Z,9.60
2018-03-29T06:25:23.536Z,9.60
2018-03-29T06:27:50.132Z,9.70
2018-03-29T06:30:16.575Z,9.70
2018-03-29T06:32:43.697Z,9.50
2018-03-29T06:35:10.076Z,9.50
2018-03-29T06:37:37.204Z,9.50
2018-03-29T06:40:03.605Z,9.40
2018-03-29T06:42:29.986Z,9.60
2018-03-29T06:44:57.110Z,9.40
2018-03-29T06:47:23.484Z,9.50
2018-03-29T06:49:49.902Z,9.40
2018-03-29T06:52:17.060Z,9.20
2018-03-29T06:54:43.621Z,9.20
2018-03-29T06:57:10.056Z,8.90
2018-03-29T06:59:36.463Z,8.40
2018-03-29T07:02:03.594Z,8.30
2018-03-29T07:04:29.987Z,8.30
2018-03-29T07:06:56.363Z,8.30
2018-03-29T07:09:22.760Z,8.30
2018-03-29T07:11:49.152Z,9.00
2018-03-29T07:14:15.538Z,9.20
2018-03-29T07:16:41.943Z,9.70
2018-03-29T07:19:08.347Z,9.90
2018-03-29T07:21:34.755Z,10.10
2018-03-29T07:24:01.961Z,10.20
2018-03-29T07:26:28.362Z,10.20
2018-03-29T07:28:54.762Z,10.30
2018-03-29T07:31:21.170Z,10.70
2018-03-29T07:33:47.543Z,10.80
2018-03-29T07:36:14.673Z,10.40
2018-03-29T07:38:41.055Z,10.40
2018-03-29T07:41:07.439Z,9.90
2018-03-29T07:43:33.829Z,9.60
2018-03-29T07:46:00.239Z,9.80
2018-03-29T07:48:26.637Z,9.90
2018-03-29T07:50:53.766Z,9.40
2018-03-29T07:53:20.157Z,9.40
2018-03-29T07:55:46.547Z,9.10
2018-03-29T07:58:12.963Z,9.00
2018-03-29T08:00:39.395Z,9.10
2018-03-29T08:03:05.852Z,9.30
2018-03-29T08:05:36.108Z,9.90
2018-03-29T08:08:02.556Z,9.90
2018-03-29T08:10:28.987Z,10.70
2018-03-29T08:12:55.372Z,10.80
2018-03-29T08:15:21.749Z,10.90
2018-03-29T08:17:48.131Z,10.90
2018-03-29T08:20:14.524Z,11.30
2018-03-29T08:22:40.912Z,11.10
2018-03-29T08:25:08.015Z,11.00
2018-03-29T08:27:34.383Z,11.00
2018-03-29T08:30:01.503Z,11.40
2018-03-29T08:32:27.919Z,11.30
2018-03-29T08:34:54.352Z,10.50
2018-03-29T08:37:20.747Z,10.40
2018-03-29T08:39:47.155Z,10.50
2018-03-29T08:42:13.556Z,10.70
2018-03-29T08:44:39.998Z,10.30
2018-03-29T08:47:06.415Z,10.00
2018-03-29T08:49:33.094Z,9.90
2018-03-29T08:52:00.250Z,9.60
2018-03-29T08:54:27.388Z,9.40
2018-03-29T08:56:53.754Z,9.40
2018-03-29T08:59:20.154Z,9.40
2018-03-29T09:01:46.536Z,9.30
2018-03-29T09:04:12.914Z,9.50
2018-03-29T09:06:39.384Z,9.80
2018-03-29T09:09:05.818Z,9.90
2018-03-29T09:11:32.195Z,9.70
2018-03-29T09:13:59.623Z,9.60
2018-03-29T09:16:26.038Z,9.80
2018-03-29T09:18:52.425Z,10.20
2018-03-29T09:23:52.848Z,11.30
2018-03-29T09:26:19.277Z,11.50
2018-03-29T09:28:45.673Z,12.10
2018-03-29T09:31:12.051Z,12.20
2018-03-29T09:33:38.446Z,11.60
2018-03-29T09:36:04.834Z,11.90
2018-03-29T09:38:31.234Z,12.50
2018-03-29T09:40:57.669Z,12.90
2018-03-29T09:43:24.049Z,13.20
2018-03-29T09:45:50.474Z,13.00
2018-03-29T09:48:17.623Z,11.80
2018-03-29T09:50:44.014Z,11.80
2018-03-29T09:53:11.346Z,11.30
2018-03-29T09:55:37.765Z,11.30
2018-03-29T09:58:04.910Z,10.60
2018-03-29T10:00:34.014Z,10.70
2018-03-29T10:03:00.433Z,10.70
2018-03-29T10:05:33.611Z,11.30
2018-03-29T10:08:00.728Z,10.70
2018-03-29T10:10:27.146Z,10.70
2018-03-29T10:12:53.520Z,10.30
2018-03-29T10:15:19.964Z,10.70
2018-03-29T10:17:47.115Z,12.00
2018-03-29T10:20:14.294Z,11.90
2018-03-29T10:22:40.793Z,11.90
2018-03-29T10:25:07.939Z,11.40
2018-03-29T10:27:35.121Z,11.30
2018-03-29T10:30:01.619Z,11.30
2018-03-29T10:32:28.801Z,12.50
2018-03-29T10:34:55.987Z,12.50
2018-03-29T10:37:22.398Z,13.00
2018-03-29T10:39:48.772Z,12.80
2018-03-29T10:42:15.181Z,13.50
2018-03-29T10:44:42.887Z,12.60
2018-03-29T10:47:09.278Z,12.30
2018-03-29T10:49:36.859Z,12.30
2018-03-29T10:52:03.248Z,12.70
2018-03-29T10:54:29.646Z,13.10
2018-03-29T10:56:56.777Z,12.50
2018-03-29T10:59:23.162Z,12.50
2018-03-29T11:01:49.589Z,13.00
2018-03-29T11:04:16.138Z,13.10
2018-03-29T11:06:42.532Z,13.80
2018-03-29T11:09:09.894Z,13.90
2018-03-29T11:11:37.060Z,13.80
2018-03-29T11:14:03.469Z,13.80
2018-03-29T11:16:31.178Z,13.80
2018-03-29T11:18:58.409Z,13.40
2018-03-29T11:21:24.831Z,13.30
2018-03-29T11:23:51.959Z,13.20
2018-03-29T11:26:18.356Z,13.20
2018-03-29T11:28:44.789Z,12.80
2018-03-29T11:31:11.207Z,12.90
2018-03-29T11:33:37.613Z,12.70
2018-03-29T11:36:04.789Z,13.20
2018-03-29T11:38:31.179Z,13.20
2018-03-29T11:40:58.342Z,14.40
2018-03-29T11:43:24.773Z,14.40
2018-03-29T11:45:51.195Z,14.40
2018-03-29T11:48:17.615Z,14.70
2018-03-29T11:50:44.019Z,14.80
2018-03-29T11:53:10.468Z,14.30
2018-03-29T11:55:36.875Z,14.30
2018-03-29T11:58:03.289Z,14.20
2018-03-29T12:00:29.696Z,14.60
2018-03-29T12:02:56.087Z,14.90
2018-03-29T12:05:22.579Z,15.10
2018-03-29T12:07:49.703Z,15.40
2018-03-29T12:10:16.892Z,15.10
2018-03-29T12:12:43.278Z,15.10
2018-03-29T12:15:09.711Z,15.30
2018-03-29T12:17:36.096Z,16.00
2018-03-29T12:20:02.568Z,15.90
2018-03-29T12:22:28.948Z,16.30
2018-03-29T12:24:55.392Z,15.90
2018-03-29T12:27:21.787Z,16.30
2018-03-29T12:29:49.046Z,16.00
2018-03-29T12:32:16.190Z,15.10
2018-03-29T12:34:43.321Z,14.70
2018-03-29T12:37:09.729Z,14.70
2018-03-29T12:39:36.113Z,14.60
2018-03-29T12:42:03.253Z,16.00
2018-03-29T12:44:29.656Z,15.90
2018-03-29T12:46:56.046Z,15.70
2018-03-29T12:49:22.476Z,15.40
2018-03-29T12:51:48.864Z,15.10
2018-03-29T12:54:16.732Z,14.60
2018-03-29T12:56:55.413Z,14.60
2018-03-29T12:59:21.792Z,14.30
2018-03-29T13:01:48.916Z,14.20
2018-03-29T13:04:15.397Z,14.20
2018-03-29T13:06:42.524Z,14.00
2018-03-29T13:09:10.458Z,14.00
2018-03-29T13:11:36.864Z,14.00
2018-03-29T13:14:03.268Z,14.10
2018-03-29T13:16:29.663Z,14.10
2018-03-29T13:18:56.063Z,14.00
2018-03-29T13:21:22.506Z,14.10
2018-03-29T13:23:48.913Z,14.10
2018-03-29T13:26:16.058Z,14.20
2018-03-29T13:28:43.196Z,14.70
2018-03-29T13:31:10.498Z,14.90
2018-03-29T13:33:38.601Z,14.90
2018-03-29T13:36:06.718Z,14.90
2018-03-29T13:38:33.233Z,14.70
2018-03-29T13:41:00.307Z,14.30
2018-03-29T13:43:27.254Z,13.80
2018-03-29T13:45:53.728Z,13.80
2018-03-29T13:48:21.500Z,13.80
2018-03-29T13:50:47.931Z,14.00
2018-03-29T13:53:14.331Z,13.60
2018-03-29T13:55:40.817Z,13.60
2018-03-29T13:58:08.377Z,13.80
2018-03-29T14:00:35.784Z,13.90
2018-03-29T14:03:02.371Z,14.10
2018-03-29T14:05:29.602Z,14.40
2018-03-29T14:07:56.502Z,14.60
2018-03-29T14:10:23.437Z,14.50
2018-03-29T14:12:51.412Z,14.50
2018-03-29T14:15:17.961Z,14.50
2018-03-29T14:17:44.477Z,14.50
2018-03-29T14:20:11.798Z,13.90
2018-03-29T14:22:38.252Z,13.90
2018-03-29T14:25:05.494Z,13.70
2018-03-29T14:27:32.834Z,13.70
2018-03-29T14:30:00.013Z,13.80
2018-03-29T14:32:29.599Z,13.80
2018-03-29T14:34:59.498Z,13.70
2018-03-29T14:37:26.041Z,13.70
2018-03-29T14:39:52.520Z,13.30
2018-03-29T14:42:19.860Z,13.10
2018-03-29T14:44:46.877Z,12.70
2018-03-29T14:47:14.087Z,12.40
2018-03-29T14:49:41.505Z,12.40
2018-03-29T14:52:08.070Z,12.40
2018-03-29T14:54:34.547Z,12.50
2018-03-29T14:57:03.056Z,13.00
2018-03-29T14:59:29.499Z,13.00
2018-03-29T15:01:56.744Z,13.30
2018-03-29T15:04:23.934Z,13.60
2018-03-29T15:06:51.137Z,13.60
2018-03-29T15:09:17.900Z,13.70
2018-03-29T15:11:45.070Z,13.80
2018-03-29T15:14:11.479Z,13.70
2018-03-29T15:16:39.640Z,13.50
2018-03-29T15:19:06.844Z,13.20
2018-03-29T15:21:34.439Z,13.20
2018-03-29T15:24:01.844Z,13.10
2018-03-29T15:26:29.273Z,13.30
2018-03-29T15:28:58.308Z,13.70
2018-03-29T15:31:25.698Z,13.60
2018-03-29T15:33:52.890Z,13.70
2018-03-29T15:36:20.867Z,13.20
2018-03-29T15:38:47.380Z,13.00
2018-03-29T15:41:13.823Z,12.90
2018-03-29T15:43:41.184Z,12.80
2018-03-29T15:46:07.952Z,12.80
2018-03-29T15:48:35.321Z,12.80
2018-03-29T15:51:01.922Z,12.70
2018-03-29T15:53:28.472Z,12.60
2018-03-29T15:55:55.023Z,12.70
2018-03-29T15:58:23.023Z,12.60
2018-03-29T16:00:50.334Z,12.70
2018-03-29T16:03:16.861Z,12.70
2018-03-29T16:05:43.620Z,12.70
2018-03-29T16:08:10.122Z,12.50
2018-03-29T16:10:38.306Z,12.40
2018-03-29T16:13:04.735Z,12.20
2018-03-29T16:15:31.167Z,12.10
2018-03-29T16:17:57.598Z,12.00
2018-03-29T16:20:24.021Z,12.00
2018-03-29T16:22:50.466Z,12.00
2018-03-29T16:25:17.188Z,11.90
2018-03-29T16:27:44.315Z,11.90
2018-03-29T16:30:13.168Z,11.90
2018-03-29T16:32:41.286Z,11.90
2018-03-29T16:35:08.441Z,11.90
2018-03-29T16:37:35.594Z,11.90
2018-03-29T16:40:02.849Z,11.90
2018-03-29T16:42:29.392Z,11.90
2018-03-29T16:44:55.815Z,11.90
2018-03-29T16:47:22.389Z,11.90
2018-03-29T16:49:48.840Z,11.80
2018-03-29T16:52:15.274Z,11.80
2018-03-29T16:54:41.702Z,11.80
2018-03-29T16:57:08.103Z,11.70
2018-03-29T16:59:34.488Z,11.70
2018-03-29T17:02:00.873Z,11.80
2018-03-29T17:04:27.263Z,11.90
2018-03-29T17:06:53.663Z,11.80
2018-03-29T17:09:20.243Z,11.60
2018-03-29T17:11:47.384Z,11.30
2018-03-29T17:14:14.535Z,11.10
2018-03-29T17:16:40.938Z,11.10
2018-03-29T17:19:07.347Z,11.00
2018-03-29T17:21:33.777Z,11.00
2018-03-29T17:24:00.157Z,10.90
2018-03-29T17:26:26.555Z,11.10
2018-03-29T17:28:52.964Z,11.00
2018-03-29T17:31:19.359Z,11.10
2018-03-29T17:33:45.747Z,11.00
2018-03-29T17:36:12.131Z,10.70
2018-03-29T17:38:39.273Z,10.90
2018-03-29T17:41:06.421Z,10.90
2018-03-29T17:43:33.568Z,10.70
2018-03-29T17:45:59.959Z,10.70
2018-03-29T17:48:26.353Z,10.70
2018-03-29T17:50:53.591Z,10.60
2018-03-29T17:53:20.853Z,10.60
2018-03-29T17:55:48.056Z,10.50
2018-03-29T17:58:14.452Z,10.50
2018-03-29T18:00:41.574Z,10.40
2018-03-29T18:03:09.455Z,10.40
2018-03-29T18:05:35.857Z,10.50
2018-03-29T18:08:02.265Z,10.50
2018-03-29T18:10:29.868Z,10.50
2018-03-29T18:12:56.269Z,10.30
2018-03-29T18:15:23.485Z,9.90
2018-03-29T18:17:49.891Z,9.50
2018-03-29T18:20:17.021Z,9.70
2018-03-29T18:22:44.908Z,10.00
2018-03-29T18:25:12.044Z,10.00
2018-03-29T18:27:38.500Z,10.00
2018-03-29T18:30:05.667Z,10.00
2018-03-29T18:32:32.067Z,10.00
2018-03-29T18:34:59.242Z,8.80
2018-03-29T18:37:26.366Z,8.40
2018-03-29T18:39:53.575Z,8.40
2018-03-29T18:42:19.956Z,8.40
2018-03-29T18:44:46.340Z,8.30
2018-03-29T18:47:12.741Z,8.20
2018-03-29T18:49:39.132Z,8.30
2018-03-29T18:52:06.277Z,8.30
2018-03-29T18:54:32.728Z,8.30
2018-03-29T18:56:59.162Z,8.30
2018-03-29T18:59:26.460Z,8.90
2018-03-29T19:01:52.847Z,8.80
2018-03-29T19:04:19.325Z,9.00
2018-03-29T19:06:45.716Z,9.20
2018-03-29T19:09:12.083Z,9.10
2018-03-29T19:11:38.477Z,9.20
2018-03-29T19:14:04.892Z,9.00
2018-03-29T19:16:31.342Z,9.00
2018-03-29T19:18:58.534Z,9.00
2018-03-29T19:21:25.292Z,9.00
2018-03-29T19:23:51.698Z,8.90
2018-03-29T19:26:18.081Z,8.90
2018-03-29T19:28:44.471Z,8.90
2018-03-29T19:31:10.852Z,9.00
2018-03-29T19:33:37.284Z,8.80
2018-03-29T19:36:03.697Z,8.80
2018-03-29T19:38:30.114Z,8.70
2018-03-29T19:40:56.525Z,8.80
2018-03-29T19:43:22.916Z,8.80
2018-03-29T19:45:49.334Z,8.70
2018-03-29T19:48:17.233Z,8.30
2018-03-29T19:50:44.392Z,8.20
2018-03-29T19:53:11.556Z,8.30
2018-03-29T19:55:37.937Z,8.30
2018-03-29T19:58:04.390Z,8.20
2018-03-29T20:00:31.586Z,8.20
2018-03-29T20:02:58.024Z,8.20
2018-03-29T20:05:24.477Z,8.20
2018-03-29T20:07:50.913Z,8.20
2018-03-29T20:10:18.801Z,7.80
2018-03-29T20:12:46.673Z,7.70
2018-03-29T20:15:13.080Z,7.70
2018-03-29T20:17:39.499Z,7.60
2018-03-29T20:20:05.949Z,7.50
2018-03-29T20:22:33.055Z,7.50
2018-03-29T20:24:59.445Z,7.60
2018-03-29T20:27:25.860Z,7.70
2018-03-29T20:29:53.756Z,7.60
2018-03-29T20:32:21.339Z,7.60
2018-03-29T20:34:47.731Z,7.40
2018-03-29T20:37:14.117Z,7.40
2018-03-29T20:39:40.515Z,7.50
2018-03-29T20:42:07.823Z,7.10
2018-03-29T20:44:34.226Z,7.10
2018-03-29T20:47:00.616Z,7.00
2018-03-29T20:49:27.029Z,6.90
2018-03-29T20:51:54.412Z,7.20
2018-03-29T20:54:20.803Z,7.30
2018-03-29T20:56:47.223Z,7.40
2018-03-29T20:59:13.608Z,7.30
2018-03-29T21:01:39.983Z,7.20
2018-03-29T21:04:06.452Z,7.20
2018-03-29T21:06:34.606Z,7.10
2018-03-29T21:09:01.056Z,7.20
2018-03-29T21:11:27.545Z,7.30
2018-03-29T21:13:53.951Z,7.40
2018-03-29T21:16:21.155Z,7.00
2018-03-29T21:18:48.250Z,6.70
2018-03-29T21:21:15.367Z,6.70
2018-03-29T21:23:41.757Z,6.70
2018-03-29T21:26:08.156Z,6.60
2018-03-29T21:28:34.526Z,6.40
2018-03-29T21:31:00.920Z,6.30
2018-03-29T21:33:28.806Z,6.40
2018-03-29T21:35:55.970Z,6.60
2018-03-29T21:38:22.352Z,6.60
2018-03-29T21:40:48.741Z,6.70
2018-03-29T21:43:15.119Z,6.80
2018-03-29T21:45:42.985Z,6.70
2018-03-29T21:48:09.364Z,6.70
2018-03-29T21:50:36.483Z,7.10
2018-03-29T21:53:02.898Z,7.10
2018-03-29T21:55:29.297Z,7.10
2018-03-29T21:57:55.690Z,7.00
2018-03-29T22:00:22.883Z,6.90
2018-03-29T22:02:49.267Z,6.80
2018-03-29T22:05:15.654Z,6.90
2018-03-29T22:07:42.082Z,6.90
2018-03-29T22:10:08.537Z,6.80
2018-03-29T22:12:34.909Z,6.80
2018-03-29T22:15:02.071Z,6.50
2018-03-29T22:17:28.451Z,6.50
2018-03-29T22:19:54.840Z,6.40
2018-03-29T22:22:21.301Z,6.50
2018-03-29T22:24:47.748Z,6.30
2018-03-29T22:27:14.246Z,5.90
2018-03-29T22:29:40.655Z,5.80
2018-03-29T22:32:07.783Z,5.70
2018-03-29T22:34:35.655Z,5.90
2018-03-29T22:37:02.072Z,5.90
2018-03-29T22:39:28.453Z,5.80
2018-03-29T22:41:55.556Z,5.80
2018-03-29T22:44:21.948Z,5.80
2018-03-29T22:46:48.374Z,6.00
2018-03-29T22:49:14.747Z,6.00
2018-03-29T22:51:41.136Z,5.80
2018-03-29T22:54:07.578Z,5.60
2018-03-29T22:56:33.973Z,5.50
2018-03-29T22:59:01.116Z,5.30
2018-03-29T23:01:27.517Z,5.30
2018-03-29T23:03:53.887Z,5.30
2018-03-29T23:06:21.022Z,5.40
2018-03-29T23:08:48.940Z,5.60
2018-03-29T23:11:15.328Z,5.60
2018-03-29T23:13:42.739Z,5.90
2018-03-29T23:16:09.124Z,5.90
2018-03-29T23:18:36.254Z,5.80
2018-03-29T23:21:04.183Z,5.50
2018-03-29T23:23:30.595Z,5.60
2018-03-29T23:25:56.975Z,5.40
2018-03-29T23:28:23.562Z,5.20
2018-03-29T23:30:49.935Z,5.00
2018-03-29T23:33:16.338Z,4.90
2018-03-29T23:35:42.725Z,4.90
2018-03-29T23:38:09.113Z,4.90
2018-03-29T23:40:35.555Z,4.90
2018-03-29T23:43:01.948Z,4.90
2018-03-29T23:45:29.077Z,5.00
2018-03-29T23:47:56.261Z,5.00
2018-03-29T23:50:22.655Z,5.00
2018-03-29T23:52:49.038Z,5.00
2018-03-29T23:55:15.424Z,5.00
2018-03-29T23:57:42.555Z,4.90
